Time;durP1;ratioP1;P1;durP2;ratioP2;P2;SDS_P1;SDS_P2;PMS_P1;PMS_P2;Temp;Humidity;BMP_temperature;BMP_pressure;BME280_temperature;BME280_humidity;BME280_pressure;Samples;Min_cycle;Max_cycle;Signal;HPM_P1;HPM_P2
2020/12/04 00:02:19;;;;;;;;;;;;;;;;;;4957514;28;20013;-88
2020/12/04 00:04:46;;;;;;;;;;;;;;;;;;4958453;28;19954;-88
2020/12/04 00:07:14;;;;;;;;;;;;;;;;;;4958112;29;19934;-88
2020/12/04 00:09:43;;;;;;;;;;;;;;;;;;4957863;28;19965;-88
2020/12/04 00:12:11;;;;;;;;;;;;;;;;;;4952679;28;19973;-88
2020/12/04 00:14:39;;;;;;;;;;;;;;;;;;4957409;28;19931;-89
2020/12/04 00:17:07;;;;;;;;;;;;;;;;;;4958769;29;19985;-88
2020/12/04 00:19:34;;;;;;;;;;;;;;;;;;4959224;28;19958;-88
2020/12/04 00:22:01;;;;;;;;;;;;;;;;;;4963778;28;20330;-89
2020/12/04 00:24:29;;;;;;;;;;;;;;;;;;4949525;28;20410;-88
2020/12/04 00:26:56;;;;;;;;;;;;;;;;;;4950327;28;20025;-88
2020/12/04 00:29:23;;;;;;;;;;;;;;;;;;4940861;28;19959;-88
2020/12/04 00:31:51;;;;;;;;;;;;;;;;;;4954420;29;19942;-88
2020/12/04 00:34:18;;;;;;;;;;;;;;;;;;4955549;28;19949;-88
2020/12/04 00:36:46;;;;;;;;;;;;;;;;;;4958794;29;19926;-88
2020/12/04 00:39:13;;;;;;;;;;;;;;;;;;4956732;28;19933;-88
2020/12/04 00:41:41;;;;;;;;;;;;;;;;;;4958775;29;19998;-88
2020/12/04 00:44:09;;;;;;;;;;;;;;;;;;4952888;29;19926;-88
2020/12/04 00:46:36;;;;;;;;;;;;;;;;;;4951151;28;20759;-88
2020/12/04 00:49:03;;;;;;;;;;;;;;;;;;4958885;29;19930;-89
2020/12/04 00:51:30;;;;;;;;;;;;;;;;;;4960296;28;19974;-88
2020/12/04 00:53:58;;;;;;;;;;;;;;;;;;4957721;28;20398;-88
2020/12/04 00:56:25;;;;;;;;;;;;;;;;;;4954588;28;20006;-89
2020/12/04 00:58:53;;;;;;;;;;;;;;;;;;4952293;29;19955;-88
2020/12/04 01:01:20;;;;;;;;;;;;;;;;;;4956412;29;19977;-88
2020/12/04 01:03:47;;;;;;;;;;;;;;;;;;4957141;29;19930;-89
2020/12/04 01:06:15;;;;;;;;;;;;;;;;;;4957440;28;20461;-89
2020/12/04 01:08:43;;;;;;;;;;;;;;;;;;4957337;29;20367;-89
2020/12/04 01:11:11;;;;;;;;;;;;;;;;;;4958952;28;20378;-88
2020/12/04 01:13:38;;;;;;;;;;;;;;;;;;4958689;28;19970;-89
2020/12/04 01:16:05;;;;;;;;;;;;;;;;;;4946585;28;20029;-88
2020/12/04 01:18:33;;;;;;;;;;;;;;;;;;4961234;28;19962;-89
2020/12/04 01:21:00;;;;;;;;;;;;;;;;;;4958561;29;19926;-89
2020/12/04 01:23:28;;;;;;;;;;;;;;;;;;4957139;29;19931;-89
2020/12/04 01:25:56;;;;;;;;;;;;;;;;;;4949761;29;20338;-88
2020/12/04 01:28:23;;;;;;;;;;;;;;;;;;4954919;29;20126;-89
2020/12/04 01:30:51;;;;;;;;;;;;;;;;;;4950451;28;19962;-88
2020/12/04 01:33:18;;;;;;;;;;;;;;;;;;4946278;29;19933;-88
2020/12/04 01:35:46;;;;;;;;;;;;;;;;;;4936521;29;20374;-89
2020/12/04 01:38:13;;;;;;;;;;;;;;;;;;4956643;28;19968;-88
2020/12/04 01:40:41;;;;;;;;;;;;;;;;;;4952180;28;19930;-88
2020/12/04 01:43:09;;;;;;;;;;;;;;;;;;4956188;28;19962;-88
2020/12/04 01:45:36;;;;;;;;;;;;;;;;;;4955485;29;20336;-88
2020/12/04 01:48:04;;;;;;;;;;;;;;;;;;4936986;29;20339;-88
2020/12/04 01:50:31;;;;;;;;;;;;;;;;;;4941269;29;20010;-88
2020/12/04 01:52:59;;;;;;;;;;;;;;;;;;4947488;29;20394;-89
2020/12/04 01:55:26;;;;;;;;;;;;;;;;;;4955757;28;19932;-88
2020/12/04 01:57:54;;;;;;;;;;;;;;;;;;4953565;28;19977;-88
2020/12/04 02:00:21;;;;;;;;;;;;;;;;;;4950548;29;20033;-88
2020/12/04 02:02:48;;;;;;;;;;;;;;;;;;5310037;23;20013;-90
2020/12/04 02:05:15;;;;;;;;;;;;;;;;;;4971063;28;20005;-88
2020/12/04 02:07:43;;;;;;;;;;;;;;;;;;4968655;28;19958;-88
2020/12/04 02:10:10;;;;;;;;;;;;;;;;;;4981910;28;20029;-88
2020/12/04 02:12:37;;;;;;;;;;;;;;;;;;4975812;28;19934;-88
2020/12/04 02:15:04;;;;;;;;;;;;;;;;;;4992982;28;19926;-88
2020/12/04 02:17:32;;;;;;;;;;;;;;;;;;4987874;28;20151;-88
2020/12/04 02:19:59;;;;;;;;;;;;;;;;;;4974638;28;19980;-88
2020/12/04 02:22:27;;;;;;;;;;;;;;;;;;4974804;28;19952;-88
2020/12/04 02:24:54;;;;;;;;;;;;;;;;;;4977970;28;20345;-88
2020/12/04 02:27:21;;;;;;;;;;;;;;;;;;4974849;28;19926;-89
2020/12/04 02:29:48;;;;;;;;;;;;;;;;;;4974378;28;19933;-88
2020/12/04 02:32:15;;;;;;;;;;;;;;;;;;4975927;28;20017;-88
2020/12/04 02:34:42;;;;;;;;;;;;;;;;;;4990838;28;20005;-88
2020/12/04 02:37:10;;;;;;;;;;;;;;;;;;4989091;28;20402;-88
2020/12/04 02:39:37;;;;;;;;;;;;;;;;;;4987729;28;19941;-87
2020/12/04 02:42:04;;;;;;;;;;;;;;;;;;4986391;28;20412;-88
2020/12/04 02:44:31;;;;;;;;;;;;;;;;;;4987601;28;20037;-88
2020/12/04 02:46:58;;;;;;;;;;;;;;;;;;4980130;28;20034;-88
2020/12/04 02:49:26;;;;;;;;;;;;;;;;;;4986534;28;19965;-88
2020/12/04 02:51:53;;;;;;;;;;;;;;;;;;4981907;28;19965;-88
2020/12/04 02:54:21;;;;;;;;;;;;;;;;;;4977487;28;19946;-88
2020/12/04 02:56:48;;;;;;;;;;;;;;;;;;4977955;28;20029;-87
2020/12/04 02:59:15;;;;;;;;;;;;;;;;;;4989956;28;19926;-87
2020/12/04 03:01:42;;;;;;;;;;;;;;;;;;4991775;28;19985;-88
2020/12/04 03:04:09;;;;;;;;;;;;;;;;;;4992682;28;19933;-88
2020/12/04 03:06:36;;;;;;;;;;;;;;;;;;4976565;28;22387;-88
2020/12/04 03:09:04;;;;;;;;;;;;;;;;;;4986064;28;19926;-88
2020/12/04 03:11:31;;;;;;;;;;;;;;;;;;4977657;28;19984;-88
2020/12/04 03:13:58;;;;;;;;;;;;;;;;;;4977768;28;20350;-88
2020/12/04 03:16:25;;;;;;;;;;;;;;;;;;4977886;28;19983;-88
2020/12/04 03:18:52;;;;;;;;;;;;;;;;;;4984104;28;20021;-88
2020/12/04 03:21:19;;;;;;;;;;;;;;;;;;4982959;28;19973;-88
2020/12/04 03:23:46;;;;;;;;;;;;;;;;;;4977476;28;19981;-88
2020/12/04 03:26:13;;;;;;;;;;;;;;;;;;4988659;28;20460;-87
2020/12/04 03:28:41;;;;;;;;;;;;;;;;;;4991825;28;19926;-88
2020/12/04 03:31:08;;;;;;;;;;;;;;;;;;4983157;28;20337;-87
2020/12/04 03:33:35;;;;;;;;;;;;;;;;;;4985289;28;19926;-88
2020/12/04 03:36:02;;;;;;;;;;;;;;;;;;4981261;28;19929;-88
2020/12/04 03:38:29;;;;;;;;;;;;;;;;;;4976879;28;20359;-87
2020/12/04 03:40:56;;;;;;;;;;;;;;;;;;4989840;28;20458;-88
2020/12/04 03:43:24;;;;;;;;;;;;;;;;;;4986066;28;19926;-88
2020/12/04 03:45:51;;;;;;;;;;;;;;;;;;4977028;28;20021;-87
2020/12/04 03:48:18;;;;;;;;;;;;;;;;;;4989320;28;20438;-88
2020/12/04 03:50:45;;;;;;;;;;;;;;;;;;4989884;28;19932;-88
2020/12/04 03:53:12;;;;;;;;;;;;;;;;;;4983048;28;20013;-88
2020/12/04 03:55:39;;;;;;;;;;;;;;;;;;4980537;28;19933;-88
2020/12/04 03:58:07;;;;;;;;;;;;;;;;;;4995187;28;20529;-88
2020/12/04 04:00:34;;;;;;;;;;;;;;;;;;4983292;28;20017;-88
2020/12/04 04:03:01;;;;;;;;;;;;;;;;;;4993198;28;19930;-88
2020/12/04 04:05:28;;;;;;;;;;;;;;;;;;4986484;28;20382;-88
2020/12/04 04:07:55;;;;;;;;;;;;;;;;;;4977384;28;19930;-87
2020/12/04 04:10:22;;;;;;;;;;;;;;;;;;4977212;28;19961;-88
2020/12/04 04:12:49;;;;;;;;;;;;;;;;;;4977739;28;19952;-88
2020/12/04 04:15:17;;;;;;;;;;;;;;;;;;4977682;28;19934;-87
2020/12/04 04:17:44;;;;;;;;;;;;;;;;;;4976553;28;20445;-87
2020/12/04 04:20:11;;;;;;;;;;;;;;;;;;4976407;28;19972;-88
2020/12/04 04:22:38;;;;;;;;;;;;;;;;;;4985413;28;19926;-88
2020/12/04 04:25:05;;;;;;;;;;;;;;;;;;4992203;28;19969;-88
2020/12/04 04:27:32;;;;;;;;;;;;;;;;;;4982729;28;20453;-88
2020/12/04 04:30:00;;;;;;;;;;;;;;;;;;4976825;28;20110;-88
2020/12/04 04:32:30;;;;;;;;;;;;;;;;;;4980651;28;19925;-88
2020/12/04 04:34:57;;;;;;;;;;;;;;;;;;4980179;28;20048;-87
2020/12/04 04:37:24;;;;;;;;;;;;;;;;;;4995748;28;19929;-89
2020/12/04 04:39:52;;;;;;;;;;;;;;;;;;4991219;28;20337;-88
2020/12/04 04:42:19;;;;;;;;;;;;;;;;;;4990876;28;19969;-88
2020/12/04 04:44:46;;;;;;;;;;;;;;;;;;4975359;28;20363;-88
2020/12/04 04:47:13;;;;;;;;;;;;;;;;;;4985311;28;19937;-87
2020/12/04 04:49:40;;;;;;;;;;;;;;;;;;4980200;28;19926;-88
2020/12/04 04:52:08;;;;;;;;;;;;;;;;;;4976948;28;20008;-88
2020/12/04 04:54:35;;;;;;;;;;;;;;;;;;4975164;28;19930;-88
2020/12/04 04:57:02;;;;;;;;;;;;;;;;;;4976648;28;20057;-88
2020/12/04 04:59:30;;;;;;;;;;;;;;;;;;4977188;28;19957;-88
2020/12/04 05:01:57;;;;;;;;;;;;;;;;;;4976089;28;19977;-88
2020/12/04 05:04:24;;;;;;;;;;;;;;;;;;4981319;28;19930;-88
2020/12/04 05:06:52;;;;;;;;;;;;;;;;;;4984308;28;19926;-88
2020/12/04 05:09:19;;;;;;;;;;;;;;;;;;4987521;28;19971;-87
2020/12/04 05:11:46;;;;;;;;;;;;;;;;;;4975927;28;19962;-87
2020/12/04 05:14:13;;;;;;;;;;;;;;;;;;4977040;28;20465;-88
2020/12/04 05:16:41;;;;;;;;;;;;;;;;;;4975062;28;19965;-88
2020/12/04 05:19:08;;;;;;;;;;;;;;;;;;4981875;28;20013;-88
2020/12/04 05:21:35;;;;;;;;;;;;;;;;;;4976883;28;19960;-88
2020/12/04 05:24:02;;;;;;;;;;;;;;;;;;4979877;28;20557;-88
2020/12/04 05:26:29;;;;;;;;;;;;;;;;;;4994302;28;19925;-88
2020/12/04 05:28:56;;;;;;;;;;;;;;;;;;4977699;28;19976;-88
2020/12/04 05:31:24;;;;;;;;;;;;;;;;;;4977368;28;19930;-88
2020/12/04 05:33:51;;;;;;;;;;;;;;;;;;4980572;28;20022;-88
2020/12/04 05:36:18;;;;;;;;;;;;;;;;;;4974422;28;19985;-87
2020/12/04 05:38:45;;;;;;;;;;;;;;;;;;4986488;28;20377;-87
2020/12/04 05:41:12;;;;;;;;;;;;;;;;;;4976582;28;20408;-87
2020/12/04 05:43:39;;;;;;;;;;;;;;;;;;4982454;28;20389;-87
2020/12/04 05:46:06;;;;;;;;;;;;;;;;;;4987542;28;20370;-88
2020/12/04 05:48:34;;;;;;;;;;;;;;;;;;4976720;28;20873;-88
2020/12/04 05:51:01;;;;;;;;;;;;;;;;;;4980665;28;20556;-88
2020/12/04 05:53:28;;;;;;;;;;;;;;;;;;4979090;28;19969;-87
2020/12/04 05:55:55;;;;;;;;;;;;;;;;;;4980800;28;19930;-88
2020/12/04 05:58:22;;;;;;;;;;;;;;;;;;4996871;28;19934;-89
2020/12/04 06:00:50;;;;;;;;;;;;;;;;;;4995105;28;20523;-87
2020/12/04 06:03:17;;;;;;;;;;;;;;;;;;4995956;28;19962;-90
2020/12/04 06:05:44;;;;;;;;;;;;;;;;;;4994653;28;19981;-89
2020/12/04 06:08:11;;;;;;;;;;;;;;;;;;4979557;28;20015;-89
2020/12/04 06:10:39;;;;;;;;;;;;;;;;;;4979690;28;20378;-89
2020/12/04 06:13:06;;;;;;;;;;;;;;;;;;4980612;28;19989;-88
2020/12/04 06:15:33;;;;;;;;;;;;;;;;;;4976992;28;19985;-88
2020/12/04 06:18:02;;;;;;;;;;;;;;;;;;4986280;28;20370;-89
2020/12/04 06:20:29;;;;;;;;;;;;;;;;;;4977145;28;19969;-90
2020/12/04 06:22:56;;;;;;;;;;;;;;;;;;4983789;28;19926;-87
2020/12/04 06:25:23;;;;;;;;;;;;;;;;;;4995532;28;20326;-90
2020/12/04 06:27:50;;;;;;;;;;;;;;;;;;4994627;28;20422;-91
2020/12/04 06:30:17;;;;;;;;;;;;;;;;;;4999131;28;19988;-92
2020/12/04 06:32:45;;;;;;;;;;;;;;;;;;4984354;28;19969;-88
2020/12/04 06:37:50;;;;;;;;;;;;;;;;;;4978895;28;19965;-90
2020/12/04 06:40:17;;;;;;;;;;;;;;;;;;4980459;28;20113;-88
2020/12/04 06:42:44;;;;;;;;;;;;;;;;;;4989306;28;20025;-88
2020/12/04 06:45:11;;;;;;;;;;;;;;;;;;4981403;28;19926;-88
2020/12/04 06:47:38;;;;;;;;;;;;;;;;;;4981146;28;20029;-88
2020/12/04 06:50:06;;;;;;;;;;;;;;;;;;4976708;28;20016;-87
2020/12/04 06:52:33;;;;;;;;;;;;;;;;;;4969532;28;19973;-89
2020/12/04 06:55:00;;;;;;;;;;;;;;;;;;4983824;28;19964;-88
2020/12/04 06:57:27;;;;;;;;;;;;;;;;;;4988310;28;19976;-87
2020/12/04 06:59:54;;;;;;;;;;;;;;;;;;4988496;28;19972;-87
2020/12/04 07:02:22;;;;;;;;;;;;;;;;;;4982139;28;19989;-88
2020/12/04 07:04:49;;;;;;;;;;;;;;;;;;4989093;28;19965;-87
2020/12/04 07:07:16;;;;;;;;;;;;;;;;;;4973349;28;19930;-87
2020/12/04 07:09:45;;;;;;;;;;;;;;;;;;4976959;28;19929;-88
2020/12/04 07:12:12;;;;;;;;;;;;;;;;;;4981689;28;19937;-89
2020/12/04 07:14:39;;;;;;;;;;;;;;;;;;4977636;28;20012;-87
2020/12/04 07:17:06;;;;;;;;;;;;;;;;;;4979676;28;20481;-89
2020/12/04 07:19:34;;;;;;;;;;;;;;;;;;4978498;28;19934;-87
2020/12/04 07:22:01;;;;;;;;;;;;;;;;;;4984131;28;19983;-87
2020/12/04 07:24:28;;;;;;;;;;;;;;;;;;4990950;28;19939;-87
2020/12/04 07:26:55;;;;;;;;;;;;;;;;;;4972945;28;20005;-89
2020/12/04 07:29:22;;;;;;;;;;;;;;;;;;4970740;28;19930;-88
2020/12/04 07:31:51;;;;;;;;;;;;;;;;;;4982475;28;20416;-88
2020/12/04 07:34:18;;;;;;;;;;;;;;;;;;4988345;28;19988;-88
2020/12/04 07:36:46;;;;;;;;;;;;;;;;;;4986124;28;19992;-88
2020/12/04 07:39:13;;;;;;;;;;;;;;;;;;4979367;28;19930;-88
2020/12/04 07:41:41;;;;;;;;;;;;;;;;;;4983430;28;19956;-89
2020/12/04 07:44:08;;;;;;;;;;;;;;;;;;4988113;28;20377;-89
2020/12/04 07:46:35;;;;;;;;;;;;;;;;;;4970358;28;19981;-88
2020/12/04 07:49:13;;;;;;;;;;;;;;;;;;4990024;28;20033;-88
2020/12/04 07:51:40;;;;;;;;;;;;;;;;;;4976815;28;19965;-88
2020/12/04 07:54:10;;;;;;;;;;;;;;;;;;4976984;28;19930;-90
2020/12/04 07:56:37;;;;;;;;;;;;;;;;;;4975089;28;20782;-89
2020/12/04 07:59:05;;;;;;;;;;;;;;;;;;4974432;28;20371;-89
2020/12/04 08:01:32;;;;;;;;;;;;;;;;;;4979477;28;20267;-88
2020/12/04 08:04:00;;;;;;;;;;;;;;;;;;4983700;28;20020;-88
2020/12/04 08:06:28;;;;;;;;;;;;;;;;;;4981246;28;20205;-87
2020/12/04 08:08:55;;;;;;;;;;;;;;;;;;4971163;28;20020;-90
2020/12/04 08:11:23;;;;;;;;;;;;;;;;;;4963068;28;19986;-87
2020/12/04 08:13:50;;;;;;;;;;;;;;;;;;4972119;28;19945;-87
2020/12/04 08:16:18;;;;;;;;;;;;;;;;;;4980234;28;19930;-89
2020/12/04 08:18:45;;;;;;;;;;;;;;;;;;4983667;28;19930;-88
2020/12/04 08:21:13;;;;;;;;;;;;;;;;;;4978623;28;19930;-87
2020/12/04 08:23:40;;;;;;;;;;;;;;;;;;4978421;28;19942;-88
2020/12/04 08:26:08;;;;;;;;;;;;;;;;;;4975912;28;19930;-87
2020/12/04 08:28:36;;;;;;;;;;;;;;;;;;4978218;28;19992;-88
2020/12/04 08:31:03;;;;;;;;;;;;;;;;;;4976920;28;19931;-89
2020/12/04 08:33:31;;;;;;;;;;;;;;;;;;4985553;28;19973;-88
2020/12/04 08:35:58;;;;;;;;;;;;;;;;;;4976565;28;19949;-88
2020/12/04 08:38:26;;;;;;;;;;;;;;;;;;4979298;28;20028;-90
2020/12/04 08:40:53;;;;;;;;;;;;;;;;;;4974010;28;20390;-92
2020/12/04 08:43:21;;;;;;;;;;;;;;;;;;4986246;28;19932;-89
2020/12/04 08:45:48;;;;;;;;;;;;;;;;;;4979247;28;20318;-89
2020/12/04 08:48:17;;;;;;;;;;;;;;;;;;4983449;28;19926;-92
2020/12/04 08:50:44;;;;;;;;;;;;;;;;;;4989210;28;19930;-89
2020/12/04 08:53:12;;;;;;;;;;;;;;;;;;4987514;28;19926;-89
2020/12/04 09:04:47;;;;;;;;;;;;;;;;;;4968698;23;19953;-84
2020/12/04 09:07:15;;;;;;;;;;;;;;;;;;4966384;28;19933;-84
2020/12/04 09:09:42;;;;;;;;;;;;;;;;;;4988456;28;19934;-84
2020/12/04 09:12:10;;;;;;;;;;;;;;;;;;4972056;28;19930;-84
2020/12/04 09:14:37;;;;;;;;;;;;;;;;;;4970772;28;19953;-84
2020/12/04 09:17:05;;;;;;;;;;;;;;;;;;4967881;28;19926;-83
2020/12/04 09:19:32;;;;;;;;;;;;;;;;;;4970058;28;20305;-83
2020/12/04 09:22:00;;;;;;;;;;;;;;;;;;4981115;28;19973;-83
2020/12/04 09:24:27;;;;;;;;;;;;;;;;;;4987717;28;19961;-84
2020/12/04 09:26:55;;;;;;;;;;;;;;;;;;4970307;28;19941;-86
2020/12/04 09:29:22;;;;;;;;;;;;;;;;;;4985670;28;19957;-85
2020/12/04 09:31:49;;;;;;;;;;;;;;;;;;4965607;28;19994;-83
2020/12/04 09:34:16;;;;;;;;;;;;;;;;;;4969678;28;19926;-83
2020/12/04 09:36:44;;;;;;;;;;;;;;;;;;4976989;28;19961;-83
2020/12/04 09:39:11;;;;;;;;;;;;;;;;;;4961373;28;19931;-83
2020/12/04 09:41:39;;;;;;;;;;;;;;;;;;4980805;28;20428;-83
2020/12/04 09:44:06;;;;;;;;;;;;;;;;;;4970202;28;19934;-83
2020/12/04 09:46:33;;;;;;;;;;;;;;;;;;4963974;28;19930;-83
2020/12/04 09:49:01;;;;;;;;;;;;;;;;;;4975470;28;19933;-83
2020/12/04 09:51:28;;;;;;;;;;;;;;;;;;4971505;28;20878;-83
2020/12/04 09:53:55;;;;;;;;;;;;;;;;;;4977984;28;19930;-83
2020/12/04 09:56:23;;;;;;;;;;;;;;;;;;4976506;28;19938;-83
2020/12/04 09:58:50;;;;;;;;;;;;;;;;;;4971467;28;19973;-83
2020/12/04 10:01:17;;;;;;;;;;;;;;;;;;4984568;28;19934;-83
2020/12/04 10:03:48;;;;;;;;;;;;;;;;;;4984282;28;19961;-83
2020/12/04 10:06:15;;;;;;;;;;;;;;;;;;4983238;28;20024;-83
2020/12/04 10:08:43;;;;;;;;;;;;;;;;;;4974226;28;20009;-83
2020/12/04 10:11:10;;;;;;;;;;;;;;;;;;4971467;28;20291;-83
2020/12/04 10:13:37;;;;;;;;;;;;;;;;;;4965175;28;19930;-83
2020/12/04 10:16:07;;;;;;;;;;;;;;;;;;4983376;28;19962;-83
2020/12/04 10:18:35;;;;;;;;;;;;;;;;;;4964713;28;19930;-83
2020/12/04 10:21:02;;;;;;;;;;;;;;;;;;4975299;28;19980;-83
2020/12/04 10:23:30;;;;;;;;;;;;;;;;;;4980500;28;19933;-83
2020/12/04 10:25:58;;;;;;;;;;;;;;;;;;4959571;28;20374;-83
2020/12/04 10:28:28;;;;;;;;;;;;;;;;;;4980416;28;19926;-83
2020/12/04 10:30:57;;;;;;;;;;;;;;;;;;4965642;28;19942;-83
2020/12/04 10:33:24;;;;;;;;;;;;;;;;;;4973772;28;19988;-83
2020/12/04 10:35:52;;;;;;;;;;;;;;;;;;4960334;28;19926;-83
2020/12/04 10:38:19;;;;;;;;;;;;;;;;;;4980476;28;19932;-83
2020/12/04 10:40:46;;;;;;;;;;;;;;;;;;4969257;28;19970;-83
2020/12/04 10:43:14;;;;;;;;;;;;;;;;;;4967013;28;19946;-83
2020/12/04 10:45:41;;;;;;;;;;;;;;;;;;4980767;28;19932;-83
2020/12/04 10:48:09;;;;;;;;;;;;;;;;;;4983811;28;19929;-83
2020/12/04 10:50:36;;;;;;;;;;;;;;;;;;4977277;28;19930;-84
2020/12/04 10:53:03;;;;;;;;;;;;;;;;;;4977732;28;19930;-83
2020/12/04 10:55:31;;;;;;;;;;;;;;;;;;4978683;28;19972;-82
2020/12/04 10:57:58;;;;;;;;;;;;;;;;;;4962804;28;20026;-85
2020/12/04 11:00:28;;;;;;;;;;;;;;;;;;4972039;28;19933;-83
2020/12/04 11:03:01;;;;;;;;;;;;;;;;;;4969530;28;19931;-83
2020/12/04 11:05:38;;;;;;;;;;;;;;;;;;4980723;28;19988;-83
2020/12/04 11:08:05;;;;;;;;;;;;;;;;;;4993503;28;19985;-83
2020/12/04 11:10:33;;;;;;;;;;;;;;;;;;4972055;28;19936;-83
2020/12/04 11:13:00;;;;;;;;;;;;;;;;;;4976561;28;20411;-83
2020/12/04 11:15:27;;;;;;;;;;;;;;;;;;4981535;28;19932;-83
2020/12/04 11:17:55;;;;;;;;;;;;;;;;;;4975187;28;19933;-83
2020/12/04 11:20:22;;;;;;;;;;;;;;;;;;4970781;28;19926;-83
2020/12/04 11:22:49;;;;;;;;;;;;;;;;;;4976785;28;20673;-83
2020/12/04 11:25:16;;;;;;;;;;;;;;;;;;4981639;28;19984;-84
2020/12/04 11:27:45;;;;;;;;;;;;;;;;;;4978956;28;19969;-83
2020/12/04 11:30:13;;;;;;;;;;;;;;;;;;4976264;28;20009;-84
2020/12/04 11:32:40;;;;;;;;;;;;;;;;;;4983475;28;19981;-84
2020/12/04 11:35:08;;;;;;;;;;;;;;;;;;4974965;28;19926;-84
2020/12/04 11:37:35;;;;;;;;;;;;;;;;;;4967773;28;20198;-84
2020/12/04 11:40:03;;;;;;;;;;;;;;;;;;4974810;28;19941;-84
2020/12/04 11:42:33;;;;;;;;;;;;;;;;;;4977722;28;20334;-84
2020/12/04 11:45:00;;;;;;;;;;;;;;;;;;4979660;28;19934;-83
2020/12/04 11:47:28;;;;;;;;;;;;;;;;;;4984681;28;19934;-83
2020/12/04 11:49:55;;;;;;;;;;;;;;;;;;4988577;28;19972;-83
2020/12/04 11:52:22;;;;;;;;;;;;;;;;;;4975842;28;19926;-84
2020/12/04 11:54:49;;;;;;;;;;;;;;;;;;4991478;28;20352;-84
2020/12/04 11:57:16;;;;;;;;;;;;;;;;;;4985327;28;20028;-83
2020/12/04 11:59:43;;;;;;;;;;;;;;;;;;4982786;28;19980;-83
2020/12/04 12:02:11;;;;;;;;;;;;;;;;;;4997774;28;19969;-84
2020/12/04 12:04:38;;;;;;;;;;;;;;;;;;4982809;28;19934;-84
2020/12/04 12:07:05;;;;;;;;;;;;;;;;;;4989961;28;19934;-85
2020/12/04 12:09:32;;;;;;;;;;;;;;;;;;4980478;28;19934;-84
2020/12/04 12:11:59;;;;;;;;;;;;;;;;;;4983889;28;19972;-83
2020/12/04 12:14:27;;;;;;;;;;;;;;;;;;4983753;28;19966;-83
2020/12/04 12:16:54;;;;;;;;;;;;;;;;;;4982131;28;19980;-84
2020/12/04 12:19:22;;;;;;;;;;;;;;;;;;4978285;28;19930;-84
2020/12/04 12:21:49;;;;;;;;;;;;;;;;;;4978178;28;19937;-83
2020/12/04 12:24:16;;;;;;;;;;;;;;;;;;4970100;28;19957;-84
2020/12/04 12:26:43;;;;;;;;;;;;;;;;;;4977729;28;19926;-84
2020/12/04 12:29:11;;;;;;;;;;;;;;;;;;4976000;28;19937;-83
2020/12/04 12:31:39;;;;;;;;;;;;;;;;;;4972045;28;20019;-84
2020/12/04 12:34:07;;;;;;;;;;;;;;;;;;4972596;28;19930;-84
2020/12/04 12:36:34;;;;;;;;;;;;;;;;;;4975182;28;19934;-83
2020/12/04 12:39:01;;;;;;;;;;;;;;;;;;4971028;28;20016;-83
2020/12/04 12:41:29;;;;;;;;;;;;;;;;;;4969662;28;20010;-83
2020/12/04 12:43:56;;;;;;;;;;;;;;;;;;4969712;28;19931;-83
2020/12/04 12:46:23;;;;;;;;;;;;;;;;;;4970510;28;19968;-83
2020/12/04 12:48:51;;;;;;;;;;;;;;;;;;4974921;28;20342;-83
2020/12/04 12:51:18;;;;;;;;;;;;;;;;;;4971447;28;20065;-84
2020/12/04 12:53:45;;;;;;;;;;;;;;;;;;4974460;28;19930;-83
2020/12/04 12:56:12;;;;;;;;;;;;;;;;;;4974897;28;19930;-83
2020/12/04 12:58:39;;;;;;;;;;;;;;;;;;4978549;28;19965;-84
2020/12/04 13:01:06;;;;;;;;;;;;;;;;;;4971406;28;19965;-85
2020/12/04 13:03:34;;;;;;;;;;;;;;;;;;4973365;28;19930;-84
2020/12/04 13:06:01;;;;;;;;;;;;;;;;;;4967277;28;19953;-84
2020/12/04 13:08:28;;;;;;;;;;;;;;;;;;4965698;28;19927;-84
2020/12/04 13:10:55;;;;;;;;;;;;;;;;;;4972954;28;19926;-83
2020/12/04 13:13:23;;;;;;;;;;;;;;;;;;4968683;28;19985;-84
2020/12/04 13:15:50;;;;;;;;;;;;;;;;;;4972624;28;19930;-84
2020/12/04 13:18:18;;;;;;;;;;;;;;;;;;4978645;28;19953;-84
2020/12/04 13:20:45;;;;;;;;;;;;;;;;;;4975722;28;19930;-84
2020/12/04 13:23:14;;;;;;;;;;;;;;;;;;4974433;28;20009;-84
2020/12/04 13:25:42;;;;;;;;;;;;;;;;;;4962288;28;19962;-85
2020/12/04 13:28:09;;;;;;;;;;;;;;;;;;4973576;28;19926;-84
2020/12/04 13:30:36;;;;;;;;;;;;;;;;;;4986693;28;19972;-84
2020/12/04 13:33:04;;;;;;;;;;;;;;;;;;4973316;28;20000;-84
2020/12/04 13:35:31;;;;;;;;;;;;;;;;;;4964134;28;19937;-84
2020/12/04 13:37:59;;;;;;;;;;;;;;;;;;4975299;28;19981;-84
2020/12/04 13:40:26;;;;;;;;;;;;;;;;;;4966234;28;19992;-85
2020/12/04 13:42:54;;;;;;;;;;;;;;;;;;4972590;28;19933;-85
2020/12/04 13:45:21;;;;;;;;;;;;;;;;;;4965845;28;19930;-85
2020/12/04 13:47:48;;;;;;;;;;;;;;;;;;4968920;28;20413;-85
2020/12/04 13:50:16;;;;;;;;;;;;;;;;;;4973728;28;19934;-85
2020/12/04 13:52:43;;;;;;;;;;;;;;;;;;4971323;28;19926;-85
2020/12/04 13:55:10;;;;;;;;;;;;;;;;;;4980077;28;19934;-85
2020/12/04 13:57:38;;;;;;;;;;;;;;;;;;4974926;28;19934;-85
2020/12/04 14:00:05;;;;;;;;;;;;;;;;;;4978056;28;20149;-85
2020/12/04 14:02:32;;;;;;;;;;;;;;;;;;4963323;28;19930;-85
2020/12/04 14:05:00;;;;;;;;;;;;;;;;;;4960467;28;19949;-85
2020/12/04 14:07:28;;;;;;;;;;;;;;;;;;4954391;28;19927;-85
2020/12/04 14:09:55;;;;;;;;;;;;;;;;;;4980368;28;19942;-85
2020/12/04 14:12:23;;;;;;;;;;;;;;;;;;4968597;28;19973;-85
2020/12/04 14:14:50;;;;;;;;;;;;;;;;;;4962126;28;19998;-85
2020/12/04 14:17:17;;;;;;;;;;;;;;;;;;4972948;28;19934;-85
2020/12/04 14:19:45;;;;;;;;;;;;;;;;;;4964557;28;19973;-86
2020/12/04 14:22:12;;;;;;;;;;;;;;;;;;4973451;28;19973;-85
2020/12/04 14:24:39;;;;;;;;;;;;;;;;;;4962442;28;19930;-86
2020/12/04 14:27:07;;;;;;;;;;;;;;;;;;4970786;28;19937;-85
2020/12/04 14:29:34;;;;;;;;;;;;;;;;;;4972354;28;20032;-86
2020/12/04 14:32:01;;;;;;;;;;;;;;;;;;4961147;28;19933;-86
2020/12/04 14:34:28;;;;;;;;;;;;;;;;;;4973177;28;20449;-85
2020/12/04 14:36:56;;;;;;;;;;;;;;;;;;4981041;28;19934;-85
2020/12/04 14:39:23;;;;;;;;;;;;;;;;;;4972973;28;19934;-85
2020/12/04 14:41:50;;;;;;;;;;;;;;;;;;4972507;28;20012;-85
2020/12/04 14:44:19;;;;;;;;;;;;;;;;;;4976463;28;19976;-85
2020/12/04 14:46:46;;;;;;;;;;;;;;;;;;4980325;28;19957;-85
2020/12/04 14:49:14;;;;;;;;;;;;;;;;;;4963905;28;19930;-85
2020/12/04 14:51:41;;;;;;;;;;;;;;;;;;4970405;28;20395;-85
2020/12/04 14:54:08;;;;;;;;;;;;;;;;;;4987045;28;19989;-85
2020/12/04 14:56:36;;;;;;;;;;;;;;;;;;4970214;28;20287;-85
2020/12/04 14:59:03;;;;;;;;;;;;;;;;;;4967611;28;19927;-85
2020/12/04 15:01:31;;;;;;;;;;;;;;;;;;4984837;28;19930;-85
2020/12/04 15:03:59;;;;;;;;;;;;;;;;;;4969767;28;19930;-86
2020/12/04 15:06:26;;;;;;;;;;;;;;;;;;4982607;28;19933;-86
2020/12/04 15:08:53;;;;;;;;;;;;;;;;;;4973963;28;19969;-85
2020/12/04 15:11:20;;;;;;;;;;;;;;;;;;4981525;28;19953;-85
2020/12/04 15:13:48;;;;;;;;;;;;;;;;;;4973897;28;19934;-85
2020/12/04 15:16:15;;;;;;;;;;;;;;;;;;4977002;28;19926;-86
2020/12/04 15:18:42;;;;;;;;;;;;;;;;;;4971520;28;19977;-85
2020/12/04 15:21:09;;;;;;;;;;;;;;;;;;4977276;28;20433;-85
2020/12/04 15:23:37;;;;;;;;;;;;;;;;;;4972099;28;19926;-85
2020/12/04 15:26:05;;;;;;;;;;;;;;;;;;4974501;28;19930;-85
2020/12/04 15:28:33;;;;;;;;;;;;;;;;;;4966787;28;19932;-85
2020/12/04 15:31:00;;;;;;;;;;;;;;;;;;4971184;28;20380;-85
2020/12/04 15:33:27;;;;;;;;;;;;;;;;;;4965688;28;19930;-85
2020/12/04 15:35:55;;;;;;;;;;;;;;;;;;4973315;28;20379;-84
2020/12/04 15:38:23;;;;;;;;;;;;;;;;;;4981602;28;20004;-83
2020/12/04 15:40:51;;;;;;;;;;;;;;;;;;4988251;28;19980;-83
2020/12/04 15:43:18;;;;;;;;;;;;;;;;;;4986419;28;19976;-83
2020/12/04 15:45:45;;;;;;;;;;;;;;;;;;4976356;28;19934;-84
2020/12/04 15:48:12;;;;;;;;;;;;;;;;;;4965247;28;19929;-83
2020/12/04 15:50:39;;;;;;;;;;;;;;;;;;4973928;28;20032;-83
2020/12/04 15:53:07;;;;;;;;;;;;;;;;;;4969587;28;19930;-83
2020/12/04 15:55:34;;;;;;;;;;;;;;;;;;4976381;28;19961;-83
2020/12/04 15:58:01;;;;;;;;;;;;;;;;;;4973552;28;20016;-83
2020/12/04 16:00:29;;;;;;;;;;;;;;;;;;4964949;28;19981;-83
2020/12/04 16:02:56;;;;;;;;;;;;;;;;;;4980130;28;19933;-83
2020/12/04 16:05:23;;;;;;;;;;;;;;;;;;4979068;28;20006;-84
2020/12/04 16:07:51;;;;;;;;;;;;;;;;;;4980956;28;19966;-84
2020/12/04 16:10:18;;;;;;;;;;;;;;;;;;4972006;28;19977;-84
2020/12/04 16:12:45;;;;;;;;;;;;;;;;;;4973844;28;20427;-83
2020/12/04 16:15:13;;;;;;;;;;;;;;;;;;4974311;28;20012;-84
2020/12/04 16:17:40;;;;;;;;;;;;;;;;;;4970928;28;19926;-84
2020/12/04 16:20:07;;;;;;;;;;;;;;;;;;4970617;28;19968;-83
2020/12/04 16:22:35;;;;;;;;;;;;;;;;;;4970296;28;19934;-84
2020/12/04 16:25:02;;;;;;;;;;;;;;;;;;4961994;28;20342;-83
2020/12/04 16:27:29;;;;;;;;;;;;;;;;;;4965590;28;20013;-84
2020/12/04 16:29:57;;;;;;;;;;;;;;;;;;4966891;28;19930;-84
2020/12/04 16:32:24;;;;;;;;;;;;;;;;;;4969270;28;19992;-84
2020/12/04 16:34:51;;;;;;;;;;;;;;;;;;4967454;28;19930;-83
2020/12/04 16:37:19;;;;;;;;;;;;;;;;;;4973816;28;19933;-83
2020/12/04 16:39:46;;;;;;;;;;;;;;;;;;4975658;28;19934;-83
2020/12/04 16:42:13;;;;;;;;;;;;;;;;;;4975350;28;19930;-84
2020/12/04 16:44:40;;;;;;;;;;;;;;;;;;4967550;28;20037;-83
2020/12/04 16:47:07;;;;;;;;;;;;;;;;;;4970380;28;19961;-83
2020/12/04 16:49:35;;;;;;;;;;;;;;;;;;4956734;28;19973;-83
2020/12/04 16:52:02;;;;;;;;;;;;;;;;;;4973895;28;19930;-83
2020/12/04 16:54:29;;;;;;;;;;;;;;;;;;4963635;28;19978;-84
2020/12/04 16:56:56;;;;;;;;;;;;;;;;;;4966279;28;19968;-84
2020/12/04 16:59:24;;;;;;;;;;;;;;;;;;4971725;28;20029;-84